createdAt,value
2023-04-16T00:02:20.863Z,60.46
2023-04-16T00:04:55.663Z,59.72
2023-04-16T00:07:24.847Z,60.45
2023-04-16T00:09:54.582Z,60.66
2023-04-16T00:12:25.274Z,60.41
2023-04-16T00:14:55.580Z,60.09
2023-04-16T00:17:25.253Z,59.93
2023-04-16T00:19:54.989Z,59.49
2023-04-16T00:22:24.895Z,58.51
2023-04-16T00:24:55.251Z,57.71
2023-04-16T00:27:24.910Z,58.10
2023-04-16T00:29:54.509Z,56.81
2023-04-16T00:32:24.211Z,57.52
2023-04-16T00:34:53.878Z,56.74
2023-04-16T00:37:23.524Z,56.79
2023-04-16T00:39:53.192Z,56.79
2023-04-16T00:42:23.470Z,56.39
2023-04-16T00:44:53.241Z,55.33
2023-04-16T00:47:29.703Z,55.85
2023-04-16T00:49:59.316Z,56.29
2023-04-16T00:52:32.854Z,54.97
2023-04-16T00:55:05.524Z,55.38
2023-04-16T00:57:35.166Z,54.60
2023-04-16T01:00:05.290Z,53.82
2023-04-16T01:02:36.849Z,53.17
2023-04-16T01:05:07.747Z,53.37
2023-04-16T01:07:40.048Z,53.47
2023-04-16T01:10:10.503Z,53.99
2023-04-16T01:12:40.216Z,53.67
2023-04-16T01:15:10.587Z,52.96
2023-04-16T01:17:40.459Z,53.15
2023-04-16T01:20:16.019Z,52.28
2023-04-16T01:22:45.712Z,52.06
2023-04-16T01:25:18.544Z,51.54
2023-04-16T01:27:51.214Z,51.60
2023-04-16T01:30:20.976Z,52.02
2023-04-16T01:32:50.779Z,52.47
2023-04-16T01:35:21.013Z,51.90
2023-04-16T01:37:55.471Z,51.99
2023-04-16T01:40:30.975Z,51.13
2023-04-16T01:43:03.265Z,51.58
2023-04-16T01:45:39.757Z,51.04
2023-04-16T01:48:15.791Z,51.16
2023-04-16T01:50:45.500Z,51.19
2023-04-16T01:53:15.193Z,50.10
2023-04-16T01:55:44.971Z,49.37
2023-04-16T01:58:16.380Z,50.29
2023-04-16T02:00:46.163Z,49.52
2023-04-16T02:03:20.208Z,49.42
2023-04-16T02:05:49.938Z,48.28
2023-04-16T02:08:20.356Z,48.73
2023-04-16T02:10:53.709Z,48.91
2023-04-16T02:13:27.684Z,48.61
2023-04-16T02:15:57.771Z,47.94
2023-04-16T02:18:27.802Z,48.84
2023-04-16T02:20:57.518Z,47.91
2023-04-16T02:23:27.377Z,47.61
2023-04-16T02:25:57.156Z,48.17
2023-04-16T02:28:26.837Z,48.28
2023-04-16T02:30:56.426Z,46.91
2023-04-16T02:33:31.304Z,47.17
2023-04-16T02:36:01.676Z,48.12
2023-04-16T02:38:31.482Z,47.11
2023-04-16T02:41:04.144Z,47.70
2023-04-16T02:43:33.756Z,46.78
2023-04-16T02:46:06.294Z,46.51
2023-04-16T02:48:36.058Z,47.57
2023-04-16T02:51:05.815Z,45.86
2023-04-16T02:53:38.298Z,46.04
2023-04-16T02:56:08.389Z,46.29
2023-04-16T02:58:37.978Z,46.18
2023-04-16T03:01:07.731Z,47.41
2023-04-16T03:03:37.701Z,45.39
2023-04-16T03:06:08.321Z,46.07
2023-04-16T03:08:38.705Z,45.73
2023-04-16T03:11:09.108Z,45.62
2023-04-16T03:13:38.668Z,45.56
2023-04-16T03:16:11.753Z,45.74
2023-04-16T03:18:41.466Z,46.63
2023-04-16T03:21:11.406Z,46.69
2023-04-16T03:23:41.573Z,47.15
2023-04-16T03:26:14.275Z,47.78
2023-04-16T03:28:45.230Z,48.65
2023-04-16T03:31:14.906Z,48.62
2023-04-16T03:33:48.028Z,48.24
2023-04-16T03:36:20.662Z,48.29
2023-04-16T03:38:53.724Z,48.26
2023-04-16T03:41:26.349Z,48.37
2023-04-16T03:43:56.261Z,47.81
2023-04-16T03:46:26.064Z,47.79
2023-04-16T03:48:55.723Z,48.03
2023-04-16T03:51:25.400Z,48.93
2023-04-16T03:53:57.659Z,47.23
2023-04-16T03:56:30.595Z,47.04
2023-04-16T03:59:03.674Z,47.76
2023-04-16T04:01:36.256Z,47.73
2023-04-16T04:04:06.191Z,47.66
2023-04-16T04:06:35.884Z,47.43
2023-04-16T04:09:07.759Z,47.73
2023-04-16T04:11:37.720Z,47.73
2023-04-16T04:14:13.121Z,47.88
2023-04-16T04:16:45.811Z,49.02
2023-04-16T04:19:18.066Z,49.09
2023-04-16T04:21:47.659Z,49.22
2023-04-16T04:24:17.290Z,48.90
2023-04-16T04:26:46.964Z,49.01
2023-04-16T04:29:22.292Z,48.73
2023-04-16T04:31:55.087Z,48.42
2023-04-16T04:34:27.496Z,48.50
2023-04-16T04:37:00.047Z,49.31
2023-04-16T04:39:29.742Z,48.13
2023-04-16T04:42:00.566Z,47.25
2023-04-16T04:44:33.068Z,47.15
2023-04-16T04:47:02.764Z,47.12
2023-04-16T04:49:35.847Z,47.19
2023-04-16T04:52:06.534Z,46.85
2023-04-16T04:54:36.198Z,46.57
2023-04-16T04:57:05.820Z,46.37
2023-04-16T04:59:35.470Z,46.57
2023-04-16T05:02:05.251Z,45.91
2023-04-16T05:04:34.897Z,45.66
2023-04-16T05:07:11.427Z,45.65
2023-04-16T05:09:41.083Z,45.06
2023-04-16T05:12:10.732Z,44.98
2023-04-16T05:14:40.329Z,45.52
2023-04-16T05:17:10.007Z,45.64
2023-04-16T05:19:46.407Z,45.08
2023-04-16T05:22:16.089Z,45.19
2023-04-16T05:24:46.067Z,44.95
2023-04-16T05:27:15.779Z,44.93
2023-04-16T05:29:45.425Z,44.92
2023-04-16T05:32:15.189Z,44.11
2023-04-16T05:34:48.551Z,43.73
2023-04-16T05:37:18.137Z,43.36
2023-04-16T05:39:47.850Z,41.70
2023-04-16T05:42:17.827Z,41.66
2023-04-16T05:44:52.955Z,41.58
2023-04-16T05:47:22.973Z,41.63
2023-04-16T05:49:52.709Z,39.70
2023-04-16T05:52:24.991Z,39.37
2023-04-16T05:54:57.496Z,39.54
2023-04-16T05:57:34.931Z,39.70
2023-04-16T06:00:07.750Z,39.04
2023-04-16T06:02:38.117Z,39.15
2023-04-16T06:05:11.023Z,39.32
2023-04-16T06:07:42.671Z,39.23
2023-04-16T06:10:15.512Z,39.34
2023-04-16T06:12:48.411Z,39.40
2023-04-16T06:15:21.047Z,38.69
2023-04-16T06:17:52.657Z,39.21
2023-04-16T06:20:22.886Z,38.95
2023-04-16T06:22:55.453Z,39.08
2023-04-16T06:25:25.267Z,38.90
2023-04-16T06:27:56.738Z,38.64
2023-04-16T06:30:27.186Z,38.01
2023-04-16T06:32:57.140Z,37.59
2023-04-16T06:35:27.527Z,38.34
2023-04-16T06:37:57.232Z,37.59
2023-04-16T06:40:31.641Z,38.14
2023-04-16T06:43:02.641Z,38.08
2023-04-16T06:45:32.285Z,37.76
2023-04-16T06:48:03.019Z,37.69
2023-04-16T06:50:33.290Z,37.12
2023-04-16T06:53:10.518Z,36.65
2023-04-16T06:55:40.232Z,35.34
2023-04-16T06:58:14.732Z,34.44
2023-04-16T07:00:44.399Z,33.81
2023-04-16T07:03:16.810Z,34.25
2023-04-16T07:05:49.234Z,34.06
2023-04-16T07:08:18.835Z,34.06
2023-04-16T07:10:48.477Z,33.80
2023-04-16T07:13:20.085Z,33.27
2023-04-16T07:15:50.320Z,32.80
2023-04-16T07:18:20.812Z,32.70
2023-04-16T07:20:52.858Z,32.61
2023-04-16T07:23:25.484Z,32.83
2023-04-16T07:25:55.191Z,32.75
2023-04-16T07:28:26.830Z,33.09
2023-04-16T07:30:56.478Z,32.89
2023-04-16T07:33:26.878Z,32.91
2023-04-16T07:35:57.086Z,32.76
2023-04-16T07:38:27.326Z,32.98
2023-04-16T07:40:58.384Z,32.63
2023-04-16T07:43:28.225Z,32.89
2023-04-16T07:45:58.082Z,32.77
2023-04-16T07:48:28.777Z,33.03
2023-04-16T07:50:58.481Z,32.53
2023-04-16T07:53:28.190Z,32.06
2023-04-16T07:56:00.652Z,32.53
2023-04-16T07:58:39.882Z,32.31
2023-04-16T08:01:09.574Z,32.14
2023-04-16T08:03:39.483Z,32.23
2023-04-16T08:06:09.534Z,32.00
2023-04-16T08:08:39.701Z,32.18
2023-04-16T08:11:12.323Z,32.56
2023-04-16T08:13:44.886Z,33.08
2023-04-16T08:16:14.596Z,32.40
2023-04-16T08:18:44.727Z,33.79
2023-04-16T08:21:14.463Z,33.54
2023-04-16T08:23:44.052Z,32.88
2023-04-16T08:26:13.717Z,34.04
2023-04-16T08:28:43.368Z,33.46
2023-04-16T08:31:13.668Z,33.46
2023-04-16T08:33:43.573Z,34.89
2023-04-16T08:36:19.445Z,34.23
2023-04-16T08:38:56.448Z,33.53
2023-04-16T08:41:29.699Z,33.56
2023-04-16T08:44:04.597Z,33.68
2023-04-16T08:46:34.420Z,33.52
2023-04-16T08:49:05.914Z,35.01
2023-04-16T08:51:44.635Z,34.09
2023-04-16T08:54:16.911Z,33.98
2023-04-16T08:56:50.680Z,34.68
2023-04-16T08:59:20.487Z,35.10
2023-04-16T09:01:55.960Z,35.44
2023-04-16T09:04:29.222Z,35.75
2023-04-16T09:06:59.369Z,36.34
2023-04-16T09:09:34.546Z,37.23
2023-04-16T09:12:04.437Z,36.22
2023-04-16T09:14:34.199Z,36.65
2023-04-16T09:17:06.465Z,37.22
2023-04-16T09:19:36.438Z,36.54
2023-04-16T09:22:06.568Z,36.71
2023-04-16T09:24:37.111Z,37.52
2023-04-16T09:27:07.579Z,37.77
2023-04-16T09:29:43.582Z,37.39
2023-04-16T09:32:14.520Z,38.16
2023-04-16T09:35:09.230Z,38.25
2023-04-16T09:37:39.498Z,38.39
2023-04-16T09:40:09.808Z,39.03
2023-04-16T09:42:43.037Z,39.11
2023-04-16T09:45:13.198Z,39.24
2023-04-16T09:47:44.964Z,38.63
2023-04-16T09:50:20.905Z,39.34
2023-04-16T09:52:53.639Z,40.69
2023-04-16T09:55:29.287Z,40.00
2023-04-16T09:58:03.039Z,39.98
2023-04-16T10:00:42.342Z,40.16
2023-04-16T10:03:16.082Z,40.61
2023-04-16T10:05:45.784Z,40.48
2023-04-16T10:08:17.790Z,40.04
2023-04-16T10:10:48.012Z,40.18
2023-04-16T10:13:23.486Z,41.15
2023-04-16T10:15:53.351Z,40.92
2023-04-16T10:18:23.821Z,40.68
2023-04-16T10:20:54.148Z,41.39
2023-04-16T10:23:26.633Z,41.68
2023-04-16T10:25:57.772Z,41.96
2023-04-16T10:28:27.560Z,41.84
2023-04-16T10:30:59.641Z,41.69
2023-04-16T10:33:43.044Z,42.14
2023-04-16T10:36:19.349Z,42.71
2023-04-16T10:38:51.682Z,41.57
2023-04-16T10:41:24.318Z,41.04
2023-04-16T10:43:54.206Z,41.31
2023-04-16T10:46:29.358Z,41.07
2023-04-16T10:49:02.909Z,41.46
2023-04-16T10:51:37.805Z,42.24
2023-04-16T10:54:16.916Z,42.13
2023-04-16T10:56:53.923Z,41.98
2023-04-16T10:59:33.011Z,41.98
2023-04-16T11:02:08.907Z,42.38
2023-04-16T11:04:49.204Z,42.52
2023-04-16T11:07:35.664Z,43.16
2023-04-16T11:10:10.031Z,42.81
2023-04-16T11:12:55.400Z,43.41
2023-04-16T11:15:26.346Z,42.59
2023-04-16T11:17:56.290Z,42.67
2023-04-16T11:20:28.247Z,42.20
2023-04-16T11:22:59.981Z,40.92
2023-04-16T11:25:31.948Z,41.14
2023-04-16T11:28:08.228Z,41.33
2023-04-16T11:30:44.195Z,41.56
2023-04-16T11:33:17.470Z,41.49
2023-04-16T11:35:47.585Z,41.49
2023-04-16T11:38:17.332Z,41.52
2023-04-16T11:40:47.175Z,41.47
2023-04-16T11:43:18.547Z,41.15
2023-04-16T11:46:12.821Z,41.57
2023-04-16T11:48:53.954Z,41.96
2023-04-16T11:51:24.803Z,42.37
2023-04-16T11:53:57.779Z,41.78
2023-04-16T11:56:32.461Z,41.97
2023-04-16T11:59:17.137Z,42.63
2023-04-16T12:02:04.713Z,44.07
2023-04-16T12:04:36.235Z,42.54
2023-04-16T12:07:16.067Z,42.62
2023-04-16T12:09:46.849Z,43.51
2023-04-16T12:12:32.787Z,43.18
2023-04-16T12:15:07.447Z,43.64
2023-04-16T12:17:38.777Z,43.69
2023-04-16T12:20:13.070Z,43.73
2023-04-16T12:22:49.890Z,43.61
2023-04-16T12:25:24.595Z,43.15
2023-04-16T12:27:57.464Z,44.10
2023-04-16T12:30:28.403Z,43.60
2023-04-16T12:33:19.288Z,42.77
2023-04-16T12:35:52.617Z,43.22
2023-04-16T12:38:24.531Z,42.98
2023-04-16T12:41:01.078Z,43.98
2023-04-16T12:43:30.814Z,43.37
2023-04-16T12:46:03.528Z,44.04
2023-04-16T12:48:34.240Z,43.43
2023-04-16T12:51:04.143Z,43.33
2023-04-16T12:53:33.760Z,44.16
2023-04-16T12:56:08.266Z,43.22
2023-04-16T12:58:37.978Z,44.11
2023-04-16T13:01:07.823Z,42.84
2023-04-16T13:03:38.910Z,43.97
2023-04-16T13:06:09.538Z,44.01
2023-04-16T13:08:39.455Z,43.46
2023-04-16T13:11:12.388Z,44.14
2023-04-16T13:13:42.479Z,44.79
2023-04-16T13:16:13.024Z,44.12
2023-04-16T13:18:43.196Z,45.13
2023-04-16T13:21:13.930Z,45.49
2023-04-16T13:23:43.563Z,45.36
2023-04-16T13:26:14.770Z,45.80
2023-04-16T13:28:44.409Z,45.40
2023-04-16T13:31:14.140Z,46.18
2023-04-16T13:33:47.010Z,45.93
2023-04-16T13:36:19.799Z,46.11
2023-04-16T13:38:53.008Z,47.21
2023-04-16T13:41:25.592Z,47.66
2023-04-16T13:43:55.836Z,48.28
2023-04-16T13:46:26.300Z,47.02
2023-04-16T13:48:56.072Z,48.03
2023-04-16T13:51:25.941Z,48.21
2023-04-16T13:53:59.916Z,48.94
2023-04-16T13:56:29.621Z,48.31
2023-04-16T13:59:03.925Z,48.67
2023-04-16T14:01:33.543Z,48.34
2023-04-16T14:04:08.099Z,48.34
2023-04-16T14:06:41.022Z,49.09
2023-04-16T14:09:13.076Z,49.76
2023-04-16T14:11:43.027Z,50.54
2023-04-16T14:14:12.727Z,50.52
2023-04-16T14:16:43.129Z,51.64
2023-04-16T14:19:13.679Z,52.77
2023-04-16T14:21:43.305Z,51.34
2023-04-16T14:24:13.025Z,52.85
2023-04-16T14:26:54.892Z,52.09
2023-04-16T14:29:24.527Z,52.75
2023-04-16T14:31:54.193Z,53.27
2023-04-16T14:34:26.806Z,52.87
2023-04-16T14:36:56.497Z,52.67
2023-04-16T14:39:26.957Z,51.14
2023-04-16T14:42:00.520Z,52.40
2023-04-16T14:44:33.109Z,51.85
2023-04-16T14:47:02.762Z,51.23
2023-04-16T14:49:32.482Z,51.85
2023-04-16T14:52:07.592Z,52.50
2023-04-16T14:54:42.375Z,52.71
2023-04-16T14:57:11.477Z,53.14
2023-04-16T14:59:44.285Z,52.51
2023-04-16T15:02:17.068Z,52.28
2023-04-16T15:04:46.992Z,53.02
2023-04-16T15:07:16.685Z,51.07
2023-04-16T15:09:55.540Z,50.92
2023-04-16T15:12:28.385Z,50.32
2023-04-16T15:14:58.118Z,51.10
2023-04-16T15:17:28.244Z,50.54
2023-04-16T15:20:00.940Z,51.25
2023-04-16T15:22:30.702Z,52.23
2023-04-16T15:25:00.328Z,52.85
2023-04-16T15:27:30.262Z,53.55
2023-04-16T15:30:00.519Z,53.72
2023-04-16T15:32:31.134Z,53.75
2023-04-16T15:35:04.372Z,53.52
2023-04-16T15:37:36.909Z,52.53
2023-04-16T15:40:10.494Z,54.53
2023-04-16T15:42:40.798Z,54.87
2023-04-16T15:45:10.668Z,55.04
2023-04-16T15:47:41.833Z,53.37
2023-04-16T15:50:12.465Z,53.63
2023-04-16T15:52:47.368Z,55.01
2023-04-16T15:55:17.821Z,54.04
2023-04-16T15:57:50.399Z,53.89
2023-04-16T16:00:20.619Z,53.98
2023-04-16T16:02:53.447Z,54.02
2023-04-16T16:05:23.201Z,54.59
2023-04-16T16:07:53.322Z,55.54
2023-04-16T16:10:23.026Z,54.36
2023-04-16T16:12:52.771Z,53.11
2023-04-16T16:15:22.563Z,54.04
2023-04-16T16:17:54.321Z,53.63
2023-04-16T16:20:27.180Z,53.56
2023-04-16T16:22:58.007Z,52.48
2023-04-16T16:25:30.639Z,52.67
2023-04-16T16:28:00.949Z,52.97
2023-04-16T16:30:33.704Z,54.16
2023-04-16T16:33:03.417Z,54.45
2023-04-16T16:35:33.885Z,54.74
2023-04-16T16:38:03.995Z,54.21
2023-04-16T16:40:33.842Z,54.24
2023-04-16T16:43:04.256Z,54.69
2023-04-16T16:45:34.283Z,53.70
2023-04-16T16:48:05.497Z,54.00
2023-04-16T16:50:35.316Z,54.13
2023-04-16T16:53:05.570Z,54.18
2023-04-16T16:55:36.662Z,53.98
2023-04-16T16:58:06.349Z,54.24
2023-04-16T17:00:36.226Z,54.26
2023-04-16T17:03:06.025Z,55.14
2023-04-16T17:05:35.804Z,55.70
2023-04-16T17:08:05.587Z,55.24
2023-04-16T17:10:37.992Z,55.25
2023-04-16T17:13:07.668Z,56.73
2023-04-16T17:15:37.272Z,56.98
2023-04-16T17:18:10.047Z,57.24
2023-04-16T17:20:40.005Z,56.97
2023-04-16T17:23:09.657Z,57.07
2023-04-16T17:25:39.371Z,56.65
2023-04-16T17:28:09.085Z,57.22
2023-04-16T17:30:41.315Z,57.11
2023-04-16T17:33:11.014Z,57.17
2023-04-16T17:35:42.527Z,57.25
2023-04-16T17:38:12.191Z,58.17
2023-04-16T17:40:41.965Z,57.71
2023-04-16T17:43:11.640Z,58.45
2023-04-16T17:45:41.370Z,57.72
2023-04-16T17:48:17.493Z,58.33
2023-04-16T17:50:51.430Z,57.41
2023-04-16T17:53:21.048Z,56.92
2023-04-16T17:55:59.594Z,56.99
2023-04-16T17:58:32.003Z,58.48
2023-04-16T18:01:01.967Z,58.02
2023-04-16T18:03:32.489Z,58.19
2023-04-16T18:06:02.721Z,59.38
2023-04-16T18:08:32.700Z,58.15
2023-04-16T18:11:12.532Z,57.92
2023-04-16T18:13:42.563Z,59.30
2023-04-16T18:16:21.161Z,59.41
2023-04-16T18:18:51.193Z,59.86
2023-04-16T18:21:20.802Z,59.16
2023-04-16T18:23:53.555Z,61.22
2023-04-16T18:26:23.336Z,61.32
2023-04-16T18:28:53.550Z,61.03
2023-04-16T18:31:23.617Z,58.82
2023-04-16T18:33:58.149Z,59.99
2023-04-16T18:36:29.070Z,60.19
2023-04-16T18:39:02.461Z,59.63
2023-04-16T18:41:33.091Z,60.11
2023-04-16T18:44:02.716Z,60.20
2023-04-16T18:46:32.449Z,61.70
2023-04-16T18:49:02.142Z,61.82
2023-04-16T18:51:31.886Z,60.21
2023-04-16T18:54:01.565Z,61.08
2023-04-16T18:56:33.938Z,61.10
2023-04-16T18:59:03.658Z,61.54
2023-04-16T19:01:33.365Z,60.67
2023-04-16T19:04:03.117Z,61.79
2023-04-16T19:06:33.776Z,60.86
2023-04-16T19:09:03.373Z,60.69
2023-04-16T19:11:36.024Z,61.45
2023-04-16T19:14:09.688Z,61.33
2023-04-16T19:16:40.746Z,61.14
2023-04-16T19:19:10.735Z,61.69
2023-04-16T19:21:43.197Z,62.94
2023-04-16T19:24:13.624Z,61.18
2023-04-16T19:26:43.299Z,62.29
2023-04-16T19:29:13.217Z,62.42
2023-04-16T19:31:43.024Z,62.99
2023-04-16T19:34:13.251Z,62.60
2023-04-16T19:36:43.189Z,61.98
2023-04-16T19:39:13.323Z,61.12
2023-04-16T19:41:43.046Z,60.81
2023-04-16T19:44:12.708Z,62.05
2023-04-16T19:46:46.271Z,61.49
2023-04-16T19:49:15.854Z,62.36
2023-04-16T19:51:45.675Z,62.13
2023-04-16T19:54:18.038Z,63.25
2023-04-16T19:56:57.901Z,63.34
2023-04-16T19:59:30.660Z,64.80
2023-04-16T20:02:00.686Z,66.21
2023-04-16T20:04:30.465Z,64.33
2023-04-16T20:07:00.311Z,63.61
2023-04-16T20:09:30.064Z,62.89
2023-04-16T20:11:59.794Z,63.64
2023-04-16T20:14:31.888Z,63.46
2023-04-16T20:17:01.690Z,62.40
2023-04-16T20:19:43.258Z,62.93
2023-04-16T20:22:13.510Z,63.64
2023-04-16T20:24:48.391Z,64.66
2023-04-16T20:27:20.915Z,65.48
2023-04-16T20:30:00.922Z,65.43
2023-04-16T20:32:30.841Z,64.66
2023-04-16T20:35:03.520Z,64.17
2023-04-16T20:37:33.946Z,63.68
2023-04-16T20:40:03.960Z,63.99
2023-04-16T20:42:34.251Z,64.62
2023-04-16T20:45:04.029Z,65.32
2023-04-16T20:47:36.088Z,64.32
2023-04-16T20:50:08.426Z,65.03
2023-04-16T20:52:40.929Z,65.22
2023-04-16T20:55:11.189Z,65.09
2023-04-16T20:57:40.831Z,56.78
2023-04-16T21:00:13.136Z,53.71
2023-04-16T21:02:43.171Z,52.51
2023-04-16T21:05:18.558Z,51.58
2023-04-16T21:07:51.952Z,51.34
2023-04-16T21:10:23.312Z,51.17
2023-04-16T21:12:53.110Z,50.97
2023-04-16T21:15:22.810Z,50.88
2023-04-16T21:17:52.425Z,50.32
2023-04-16T21:20:22.085Z,50.45
2023-04-16T21:22:52.672Z,50.34
2023-04-16T21:25:42.084Z,50.08
2023-04-16T21:28:12.082Z,49.83
2023-04-16T21:30:45.254Z,49.65
2023-04-16T21:33:16.298Z,49.37
2023-04-16T21:35:49.233Z,49.54
2023-04-16T21:38:18.872Z,49.22
2023-04-16T21:40:55.173Z,49.02
2023-04-16T21:43:33.923Z,48.83
2023-04-16T21:46:04.023Z,48.72
2023-04-16T21:48:38.932Z,48.45
2023-04-16T21:51:14.837Z,48.20
2023-04-16T21:53:44.683Z,47.95
2023-04-16T21:56:19.378Z,47.80
2023-04-16T21:58:48.332Z,47.97
2023-04-16T22:01:20.932Z,47.69
2023-04-16T22:03:53.301Z,47.62
2023-04-16T22:06:24.835Z,47.41
2023-04-16T22:08:54.930Z,47.36
2023-04-16T22:11:27.612Z,47.29
2023-04-16T22:14:02.536Z,46.99
2023-04-16T22:16:32.568Z,46.85
2023-04-16T22:19:02.194Z,46.82
2023-04-16T22:21:33.302Z,46.57
2023-04-16T22:24:03.092Z,46.35
2023-04-16T22:26:33.060Z,46.08
2023-04-16T22:29:05.440Z,46.05
2023-04-16T22:31:44.100Z,45.84
2023-04-16T22:34:18.416Z,45.44
2023-04-16T22:37:09.532Z,44.80
2023-04-16T22:39:51.358Z,45.20
2023-04-16T22:42:21.098Z,45.68
2023-04-16T22:44:50.633Z,45.96
2023-04-16T22:47:50.930Z,44.18
2023-04-16T22:50:58.679Z,46.81
2023-04-16T22:54:20.226Z,47.02
2023-04-16T22:56:58.418Z,46.98
2023-04-16T22:59:31.563Z,46.83
2023-04-16T23:02:12.105Z,46.60
2023-04-16T23:04:41.873Z,46.15
2023-04-16T23:07:11.680Z,46.37
2023-04-16T23:09:41.526Z,46.15
2023-04-16T23:12:11.522Z,45.82
2023-04-16T23:14:41.154Z,45.88
2023-04-16T23:17:10.767Z,45.98
2023-04-16T23:19:49.485Z,45.82
2023-04-16T23:22:19.213Z,45.44
2023-04-16T23:24:51.553Z,45.36
2023-04-16T23:27:24.036Z,45.36
2023-04-16T23:29:56.366Z,45.16
2023-04-16T23:32:26.066Z,45.03
2023-04-16T23:34:56.017Z,44.96
2023-04-16T23:37:26.136Z,44.79
2023-04-16T23:39:56.054Z,44.74
2023-04-16T23:42:28.688Z,44.75
2023-04-16T23:45:01.468Z,44.74
2023-04-16T23:47:31.187Z,44.65
2023-04-16T23:50:00.858Z,44.77
2023-04-16T23:52:30.648Z,44.71
2023-04-16T23:55:01.587Z,44.81
2023-04-16T23:57:31.455Z,44.59
